createdAt,value
2023-01-30T00:01:33.680Z,15.98
2023-01-30T00:04:02.485Z,16.05
2023-01-30T00:06:31.189Z,17.33
2023-01-30T00:09:00.017Z,16.35
2023-01-30T00:11:30.464Z,16.88
2023-01-30T00:13:59.432Z,16.25
2023-01-30T00:16:28.070Z,16.52
2023-01-30T00:18:57.024Z,16.98
2023-01-30T00:21:25.534Z,15.65
2023-01-30T00:23:54.587Z,17.02
2023-01-30T00:26:23.195Z,17.08
2023-01-30T00:28:52.084Z,16.83
2023-01-30T00:31:20.746Z,15.93
2023-01-30T00:33:49.583Z,15.93
2023-01-30T00:36:18.072Z,15.98
2023-01-30T00:38:47.924Z,15.80
2023-01-30T00:41:17.605Z,16.38
2023-01-30T00:44:04.964Z,17.17
2023-01-30T00:47:13.547Z,16.75
2023-01-30T00:49:42.650Z,16.42
2023-01-30T00:52:11.236Z,16.95
2023-01-30T00:54:41.704Z,16.52
2023-01-30T00:57:10.238Z,17.17
2023-01-30T01:52:31.771Z,15.35
2023-01-30T01:55:03.044Z,17.10
2023-01-30T01:58:05.929Z,17.42
2023-01-30T02:00:35.346Z,16.98
2023-01-30T02:03:07.859Z,17.30
2023-01-30T02:05:39.483Z,16.50
2023-01-30T02:08:21.684Z,17.45
2023-01-30T02:11:19.942Z,17.75
2023-01-30T02:13:48.599Z,16.95
2023-01-30T02:16:17.810Z,16.85
2023-01-30T02:18:46.451Z,16.02
2023-01-30T02:21:42.998Z,16.40
2023-01-30T02:24:29.809Z,16.13
2023-01-30T02:27:36.022Z,16.00
2023-01-30T02:30:35.660Z,17.10
2023-01-30T02:33:50.675Z,16.25
2023-01-30T02:36:28.424Z,16.88
2023-01-30T02:39:19.039Z,16.65
2023-01-30T02:42:25.502Z,16.33
2023-01-30T02:45:26.671Z,15.63
2023-01-30T02:48:04.909Z,16.45
2023-01-30T02:50:47.970Z,17.40
2023-01-30T02:53:16.649Z,15.73
2023-01-30T02:55:45.511Z,17.05
2023-01-30T02:58:14.148Z,16.42
2023-01-30T03:01:33.623Z,16.90
2023-01-30T03:04:44.569Z,15.82
2023-01-30T03:07:56.262Z,15.80
2023-01-30T03:10:37.508Z,15.45
2023-01-30T03:13:34.310Z,15.45
2023-01-30T03:16:06.686Z,15.68
2023-01-30T03:18:35.651Z,16.20
2023-01-30T03:21:06.242Z,16.20
2023-01-30T03:23:35.209Z,15.50
2023-01-30T03:26:11.065Z,16.85
2023-01-30T03:28:41.431Z,15.85
2023-01-30T03:31:10.722Z,15.77
2023-01-30T03:33:39.758Z,16.67
2023-01-30T03:36:09.038Z,16.08
2023-01-30T03:38:39.968Z,17.30
2023-01-30T03:41:08.620Z,16.65
2023-01-30T03:43:37.514Z,14.80
2023-01-30T03:46:07.854Z,17.00
2023-01-30T03:48:36.698Z,14.88
2023-01-30T03:51:05.490Z,16.27
2023-01-30T03:53:34.370Z,16.38
2023-01-30T03:56:03.085Z,15.75
2023-01-30T03:58:34.727Z,16.27
2023-01-30T04:01:15.671Z,16.08
2023-01-30T04:03:44.581Z,15.57
2023-01-30T04:06:13.085Z,15.13
2023-01-30T04:08:42.569Z,17.05
2023-01-30T04:11:17.689Z,17.50
2023-01-30T04:13:46.627Z,17.20
2023-01-30T04:16:26.399Z,16.50
2023-01-30T04:19:13.698Z,16.33
2023-01-30T04:21:43.064Z,16.42
2023-01-30T04:24:12.119Z,16.48
2023-01-30T04:26:40.707Z,16.50
2023-01-30T04:29:10.474Z,16.38
2023-01-30T04:31:40.634Z,17.17
2023-01-30T04:34:25.071Z,16.10
2023-01-30T04:36:54.134Z,16.90
2023-01-30T04:39:22.988Z,16.02
2023-01-30T04:41:51.620Z,14.88
2023-01-30T04:44:21.246Z,17.27
2023-01-30T04:47:22.194Z,16.63
2023-01-30T04:49:51.145Z,16.10
2023-01-30T04:52:19.820Z,16.30
2023-01-30T04:54:49.813Z,17.10
2023-01-30T04:57:19.596Z,15.32
2023-01-30T04:59:48.717Z,15.50
2023-01-30T05:02:18.416Z,15.90
2023-01-30T05:04:50.639Z,15.13
2023-01-30T05:07:19.391Z,14.90
2023-01-30T05:09:48.356Z,15.50
2023-01-30T05:12:17.155Z,15.77
2023-01-30T05:14:47.385Z,14.73
2023-01-30T05:17:16.154Z,14.93
2023-01-30T05:19:45.189Z,14.07
2023-01-30T05:22:13.875Z,14.57
2023-01-30T05:24:42.878Z,14.38
2023-01-30T05:27:11.613Z,13.80
2023-01-30T05:29:40.626Z,13.98
2023-01-30T05:32:11.889Z,14.20
2023-01-30T05:34:41.118Z,13.20
2023-01-30T05:37:10.897Z,13.32
2023-01-30T05:39:39.621Z,13.70
2023-01-30T05:42:08.106Z,13.57
2023-01-30T05:44:37.017Z,12.95
2023-01-30T05:47:05.501Z,13.88
2023-01-30T05:49:34.360Z,13.48
2023-01-30T05:52:02.908Z,12.65
2023-01-30T05:54:32.059Z,13.43
2023-01-30T05:57:00.785Z,12.82
2023-01-30T05:59:29.759Z,12.95
2023-01-30T06:01:58.405Z,12.88
2023-01-30T06:04:28.672Z,13.55
2023-01-30T06:06:57.080Z,13.57
2023-01-30T06:09:27.393Z,12.88
2023-01-30T06:11:56.108Z,13.23
2023-01-30T06:14:24.956Z,13.02
2023-01-30T06:16:53.520Z,13.07
2023-01-30T06:19:22.462Z,12.35
2023-01-30T06:21:50.896Z,12.13
2023-01-30T06:24:19.610Z,11.98
2023-01-30T06:26:48.045Z,12.45
2023-01-30T06:29:16.789Z,12.23
2023-01-30T06:31:45.334Z,12.40
2023-01-30T06:34:14.277Z,13.10
2023-01-30T06:36:44.229Z,12.20
2023-01-30T06:39:13.298Z,12.50
2023-01-30T06:41:41.977Z,11.52
2023-01-30T06:44:11.059Z,13.13
2023-01-30T06:46:40.412Z,12.52
2023-01-30T06:49:09.548Z,13.00
2023-01-30T06:51:38.216Z,11.57
2023-01-30T06:54:07.275Z,11.52
2023-01-30T06:56:35.999Z,11.80
2023-01-30T06:59:05.018Z,12.40
2023-01-30T07:01:33.803Z,13.00
2023-01-30T07:04:02.864Z,12.35
2023-01-30T07:06:31.664Z,12.40
2023-01-30T07:09:00.663Z,12.90
2023-01-30T07:11:29.346Z,12.88
2023-01-30T07:13:58.599Z,12.85
2023-01-30T07:16:29.636Z,12.80
2023-01-30T07:18:59.195Z,13.25
2023-01-30T07:21:28.038Z,13.10
2023-01-30T07:23:56.882Z,12.60
2023-01-30T07:26:25.753Z,13.57
2023-01-30T07:29:19.924Z,11.52
2023-01-30T07:31:48.798Z,13.60
2023-01-30T07:34:19.002Z,13.50
2023-01-30T07:36:47.816Z,13.27
2023-01-30T07:39:16.596Z,11.70
2023-01-30T07:41:45.160Z,12.75
2023-01-30T07:44:14.451Z,13.02
2023-01-30T07:46:43.216Z,12.95
2023-01-30T07:49:12.104Z,12.43
2023-01-30T07:51:40.677Z,12.93
2023-01-30T07:54:10.718Z,12.45
2023-01-30T07:56:39.444Z,12.82
2023-01-30T07:59:08.335Z,13.48
2023-01-30T08:01:36.910Z,13.48
2023-01-30T08:04:05.999Z,17.13
2023-01-30T08:06:39.417Z,19.38
2023-01-30T08:09:08.708Z,17.35
2023-01-30T08:11:37.141Z,15.27
2023-01-30T08:14:07.181Z,13.52
2023-01-30T08:16:35.918Z,14.45
2023-01-30T08:19:06.068Z,13.93
2023-01-30T08:21:34.690Z,13.65
2023-01-30T08:24:04.961Z,14.10
2023-01-30T08:26:33.569Z,14.27
2023-01-30T08:29:03.608Z,14.25
2023-01-30T08:31:32.242Z,14.95
2023-01-30T08:34:01.141Z,13.52
2023-01-30T08:36:29.705Z,13.65
2023-01-30T08:38:58.564Z,12.70
2023-01-30T08:41:28.879Z,12.85
2023-01-30T08:43:57.835Z,13.35
2023-01-30T08:46:26.497Z,13.23
2023-01-30T08:48:55.452Z,12.50
2023-01-30T08:51:24.002Z,12.73
2023-01-30T08:53:52.934Z,13.63
2023-01-30T08:56:21.503Z,14.35
2023-01-30T08:58:50.460Z,13.90
2023-01-30T09:01:19.127Z,13.45
2023-01-30T09:03:48.370Z,14.63
2023-01-30T09:06:16.812Z,13.90
2023-01-30T09:08:45.875Z,14.77
2023-01-30T09:11:14.390Z,12.73
2023-01-30T09:13:44.785Z,13.93
2023-01-30T09:16:13.472Z,14.18
2023-01-30T09:18:43.308Z,14.30
2023-01-30T09:21:13.081Z,15.23
2023-01-30T09:23:41.982Z,15.07
2023-01-30T09:26:10.727Z,15.80
2023-01-30T09:28:40.761Z,15.27
2023-01-30T09:31:09.472Z,14.32
2023-01-30T09:33:38.457Z,16.10
2023-01-30T09:36:07.961Z,15.60
2023-01-30T09:38:36.811Z,14.85
2023-01-30T09:41:30.556Z,15.60
2023-01-30T09:44:37.051Z,14.57
2023-01-30T09:47:23.815Z,15.02
2023-01-30T09:50:58.396Z,14.95
2023-01-30T09:53:51.407Z,15.98
2023-01-30T09:56:20.488Z,14.63
2023-01-30T09:59:16.219Z,13.77
2023-01-30T10:01:58.480Z,15.45
2023-01-30T10:04:41.953Z,15.90
2023-01-30T10:07:24.675Z,16.17
2023-01-30T10:09:58.671Z,15.52
2023-01-30T10:13:04.082Z,15.80
2023-01-30T10:15:56.437Z,16.63
2023-01-30T10:19:26.090Z,18.50
2023-01-30T10:22:32.015Z,17.63
2023-01-30T10:25:33.583Z,18.55
2023-01-30T10:28:34.551Z,18.38
2023-01-30T10:31:09.226Z,16.70
2023-01-30T10:33:50.610Z,18.00
2023-01-30T10:36:28.290Z,16.50
2023-01-30T10:38:57.660Z,16.15
2023-01-30T10:41:55.282Z,18.33
2023-01-30T10:44:24.823Z,19.20
2023-01-30T10:47:02.780Z,18.38
2023-01-30T10:49:58.130Z,19.27
2023-01-30T10:52:38.978Z,19.33
2023-01-30T10:55:36.833Z,20.50
2023-01-30T10:58:27.294Z,19.15
2023-01-30T11:01:01.399Z,20.17
2023-01-30T11:04:19.149Z,19.52
2023-01-30T11:06:48.155Z,20.25
2023-01-30T11:09:16.699Z,20.30
2023-01-30T11:11:49.656Z,19.73
2023-01-30T11:14:18.471Z,19.35
2023-01-30T11:16:52.329Z,19.88
2023-01-30T11:19:25.843Z,20.63
2023-01-30T11:21:56.614Z,19.73
2023-01-30T11:24:32.431Z,20.15
2023-01-30T11:27:44.884Z,18.23
2023-01-30T11:30:16.620Z,17.95
2023-01-30T11:32:48.461Z,18.58
2023-01-30T11:35:29.517Z,17.92
2023-01-30T11:38:24.375Z,18.20
2023-01-30T11:41:17.836Z,16.85
2023-01-30T11:43:48.533Z,19.02
2023-01-30T11:46:20.829Z,18.70
2023-01-30T11:49:06.169Z,19.13
2023-01-30T11:51:45.565Z,19.17
2023-01-30T11:54:20.133Z,18.02
2023-01-30T11:56:55.800Z,18.50
2023-01-30T11:59:25.810Z,17.52
2023-01-30T12:02:02.134Z,17.80
2023-01-30T12:04:31.337Z,17.17
2023-01-30T12:07:21.161Z,17.15
2023-01-30T12:09:51.959Z,17.05
2023-01-30T12:12:45.882Z,20.42
2023-01-30T12:15:31.289Z,19.90
2023-01-30T12:18:20.160Z,18.50
2023-01-30T12:21:00.161Z,19.60
2023-01-30T12:23:47.827Z,18.48
2023-01-30T12:26:44.954Z,18.95
2023-01-30T12:29:33.854Z,18.45
2023-01-30T12:32:22.679Z,18.52
2023-01-30T12:34:51.592Z,17.02
2023-01-30T12:37:40.061Z,17.63
2023-01-30T12:40:08.782Z,17.25
2023-01-30T12:42:58.292Z,15.63
2023-01-30T12:45:51.486Z,16.73
2023-01-30T12:51:55.632Z,15.35
2023-01-30T12:54:24.792Z,14.55
2023-01-30T12:57:05.626Z,16.73
2023-01-30T13:00:09.746Z,16.98
2023-01-30T13:06:08.203Z,16.08
2023-01-30T13:09:16.633Z,17.42
2023-01-30T13:12:05.386Z,16.77
2023-01-30T13:14:59.295Z,16.27
2023-01-30T13:17:38.528Z,17.02
2023-01-30T13:20:13.758Z,18.17
2023-01-30T13:23:19.363Z,17.58
2023-01-30T13:25:55.538Z,18.55
2023-01-30T13:28:41.899Z,15.90
2023-01-30T13:31:12.782Z,16.80
2023-01-30T13:33:44.794Z,15.70
2023-01-30T13:36:31.744Z,15.60
2023-01-30T13:39:03.713Z,15.50
2023-01-30T13:41:38.733Z,16.92
2023-01-30T13:44:29.397Z,15.32
2023-01-30T13:46:59.757Z,15.43
2023-01-30T13:49:43.837Z,14.73
2023-01-30T13:52:41.322Z,15.68
2023-01-30T13:55:32.849Z,15.55
2023-01-30T13:58:25.451Z,15.90
2023-01-30T14:00:55.450Z,15.35
2023-01-30T14:03:25.338Z,14.93
2023-01-30T14:06:03.279Z,16.45
2023-01-30T14:08:46.162Z,16.38
2023-01-30T14:11:36.356Z,16.25
2023-01-30T14:14:21.077Z,15.43
2023-01-30T14:16:52.234Z,16.73
2023-01-30T14:19:37.322Z,16.98
2023-01-30T14:22:25.717Z,17.58
2023-01-30T14:25:38.862Z,18.08
2023-01-30T14:28:08.954Z,16.95
2023-01-30T14:30:48.146Z,18.70
2023-01-30T14:33:23.361Z,17.38
2023-01-30T14:36:07.645Z,18.45
2023-01-30T14:38:38.663Z,18.42
2023-01-30T14:41:07.452Z,19.70
2023-01-30T14:43:43.199Z,18.50
2023-01-30T14:46:21.068Z,19.10
2023-01-30T14:48:57.025Z,18.83
2023-01-30T14:51:28.793Z,20.02
2023-01-30T14:54:00.947Z,20.57
2023-01-30T14:56:45.603Z,19.92
2023-01-30T14:59:17.580Z,21.10
2023-01-30T15:02:00.175Z,20.83
2023-01-30T15:04:40.160Z,20.80
2023-01-30T15:07:48.885Z,21.70
2023-01-30T15:10:33.689Z,21.58
2023-01-30T15:16:00.157Z,21.50
2023-01-30T15:18:40.909Z,20.42
2023-01-30T15:21:29.708Z,20.75
2023-01-30T15:24:26.394Z,23.00
2023-01-30T15:27:14.072Z,22.42
2023-01-30T15:30:01.255Z,23.00
2023-01-30T15:32:31.327Z,22.55
2023-01-30T15:35:16.985Z,21.92
2023-01-30T15:37:48.829Z,19.40
2023-01-30T15:40:20.862Z,22.98
2023-01-30T15:43:00.475Z,21.67
2023-01-30T15:45:34.936Z,23.40
2023-01-30T15:48:12.805Z,22.92
2023-01-30T15:50:47.200Z,22.05
2023-01-30T15:53:16.211Z,22.92
2023-01-30T15:55:44.919Z,22.90
2023-01-30T15:58:17.350Z,24.80
2023-01-30T16:00:47.964Z,23.15
2023-01-30T16:03:23.713Z,22.67
2023-01-30T16:05:55.553Z,21.95
2023-01-30T16:08:32.192Z,25.00
2023-01-30T16:11:00.979Z,24.40
2023-01-30T16:13:30.473Z,24.23
2023-01-30T16:16:08.266Z,24.73
2023-01-30T16:18:50.003Z,23.73
2023-01-30T16:21:24.378Z,21.63
2023-01-30T16:23:58.808Z,22.88
2023-01-30T16:26:27.589Z,21.02
2023-01-30T16:29:07.379Z,22.85
2023-01-30T16:31:39.902Z,22.88
2023-01-30T16:34:30.657Z,20.45
2023-01-30T16:37:04.360Z,21.48
2023-01-30T16:39:35.226Z,21.35
2023-01-30T16:42:18.868Z,20.23
2023-01-30T16:44:47.920Z,19.55
2023-01-30T16:47:25.534Z,19.52
2023-01-30T16:49:55.021Z,19.30
2023-01-30T16:52:25.790Z,19.27
2023-01-30T16:54:58.962Z,19.83
2023-01-30T16:57:43.972Z,19.15
2023-01-30T17:00:27.321Z,19.08
2023-01-30T17:03:21.875Z,19.95
2023-01-30T17:05:51.950Z,19.40
2023-01-30T17:08:43.239Z,18.20
2023-01-30T17:11:29.443Z,19.07
2023-01-30T17:14:26.131Z,17.90
2023-01-30T17:17:05.063Z,18.15
2023-01-30T17:19:34.107Z,17.98
2023-01-30T17:22:05.753Z,18.67
2023-01-30T17:24:35.435Z,18.30
2023-01-30T17:27:04.863Z,21.13
2023-01-30T17:29:42.515Z,19.67
2023-01-30T17:32:13.658Z,19.35
2023-01-30T17:34:42.453Z,19.20
2023-01-30T17:37:20.036Z,17.60
2023-01-30T17:39:48.903Z,18.10
2023-01-30T17:42:21.169Z,17.65
2023-01-30T17:44:49.935Z,19.10
2023-01-30T17:47:19.027Z,18.38
2023-01-30T17:49:47.718Z,16.45
2023-01-30T17:52:16.489Z,18.77
2023-01-30T17:54:44.989Z,19.10
2023-01-30T17:57:15.841Z,17.83
2023-01-30T17:59:44.661Z,18.02
2023-01-30T18:02:15.828Z,18.10
2023-01-30T18:04:45.130Z,18.27
2023-01-30T18:07:14.793Z,18.73
2023-01-30T18:09:43.601Z,18.50
2023-01-30T18:12:12.574Z,18.05
2023-01-30T18:14:41.271Z,19.38
2023-01-30T18:17:11.489Z,19.60
2023-01-30T18:19:40.235Z,17.98
2023-01-30T18:22:09.328Z,19.50
2023-01-30T18:24:38.109Z,19.98
2023-01-30T18:27:08.330Z,19.20
2023-01-30T18:29:37.769Z,19.08
2023-01-30T18:32:06.873Z,19.67
2023-01-30T18:34:35.656Z,20.08
2023-01-30T18:37:04.743Z,21.35
2023-01-30T18:39:33.526Z,20.83
2023-01-30T18:42:03.267Z,22.67
2023-01-30T18:44:32.003Z,21.60
2023-01-30T18:47:00.996Z,21.98
2023-01-30T18:49:30.932Z,21.88
2023-01-30T18:52:00.046Z,22.10
2023-01-30T18:54:28.804Z,23.42
2023-01-30T18:56:57.936Z,23.38
2023-01-30T18:59:26.965Z,23.42
2023-01-30T19:01:55.938Z,22.63
2023-01-30T19:04:24.664Z,23.02
2023-01-30T19:06:54.984Z,23.65
2023-01-30T19:09:23.773Z,22.90
2023-01-30T19:12:11.337Z,21.45
2023-01-30T19:14:40.163Z,22.65
2023-01-30T19:17:09.324Z,24.55
2023-01-30T19:19:38.154Z,23.98
2023-01-30T19:22:07.204Z,25.05
2023-01-30T19:24:35.975Z,23.70
2023-01-30T19:27:05.664Z,24.02
2023-01-30T19:29:34.375Z,24.58
2023-01-30T19:32:03.680Z,23.73
2023-01-30T19:34:32.444Z,22.90
2023-01-30T19:37:01.480Z,24.65
2023-01-30T19:39:30.222Z,23.48
2023-01-30T19:41:59.343Z,23.90
2023-01-30T19:44:28.250Z,23.38
2023-01-30T19:46:57.347Z,24.63
2023-01-30T19:49:26.104Z,23.90
2023-01-30T19:51:57.333Z,25.42
2023-01-30T19:54:26.100Z,25.00
2023-01-30T19:56:55.134Z,23.00
2023-01-30T19:59:28.737Z,26.52
2023-01-30T20:01:57.925Z,24.75
2023-01-30T20:04:26.755Z,26.45
2023-01-30T20:06:55.824Z,25.65
2023-01-30T20:09:24.561Z,24.60
2023-01-30T20:11:53.714Z,23.20
2023-01-30T20:14:22.464Z,24.42
2023-01-30T20:16:51.482Z,25.13
2023-01-30T20:19:20.094Z,25.25
2023-01-30T20:21:49.108Z,26.65
2023-01-30T20:24:18.473Z,23.67
2023-01-30T20:26:48.640Z,24.77
2023-01-30T20:29:18.669Z,25.98
2023-01-30T20:31:47.814Z,25.08
2023-01-30T20:34:16.615Z,24.02
2023-01-30T20:36:45.664Z,25.05
2023-01-30T20:39:16.277Z,24.50
2023-01-30T20:41:45.346Z,23.92
2023-01-30T20:44:14.736Z,24.27
2023-01-30T20:46:46.314Z,24.80
2023-01-30T20:49:19.618Z,25.85
2023-01-30T20:51:53.125Z,26.55
2023-01-30T20:54:22.907Z,26.17
2023-01-30T20:56:53.312Z,26.65
2023-01-30T20:59:24.462Z,28.10
2023-01-30T21:01:53.694Z,24.95
2023-01-30T21:04:24.398Z,27.25
2023-01-30T21:06:54.250Z,26.60
2023-01-30T21:09:23.687Z,24.58
2023-01-30T21:11:53.546Z,25.00
2023-01-30T21:14:22.521Z,26.23
2023-01-30T21:16:53.033Z,24.63
2023-01-30T21:19:23.014Z,24.95
2023-01-30T21:21:55.496Z,24.65
2023-01-30T21:24:26.168Z,25.98
2023-01-30T21:26:55.425Z,24.25
2023-01-30T21:29:25.058Z,25.02
2023-01-30T21:31:54.404Z,25.77
2023-01-30T21:34:23.445Z,26.45
2023-01-30T21:37:26.427Z,24.45
2023-01-30T21:40:13.616Z,25.30
2023-01-30T21:43:01.150Z,25.83
2023-01-30T21:45:29.945Z,26.77
2023-01-30T21:47:59.023Z,26.08
2023-01-30T21:50:28.476Z,26.85
2023-01-30T21:52:57.533Z,26.02
2023-01-30T21:55:26.246Z,26.00
2023-01-30T21:57:55.592Z,25.50
2023-01-30T22:00:24.249Z,27.05
2023-01-30T22:02:53.257Z,26.33
2023-01-30T22:05:22.361Z,28.02
2023-01-30T22:07:51.615Z,26.67
2023-01-30T22:10:20.325Z,27.08
2023-01-30T22:12:49.413Z,26.73
2023-01-30T22:15:21.044Z,27.27
2023-01-30T22:17:50.619Z,27.90
2023-01-30T22:20:19.387Z,26.70
2023-01-30T22:22:49.496Z,27.52
2023-01-30T22:25:18.610Z,28.27
2023-01-30T22:27:49.336Z,27.80
2023-01-30T22:30:18.675Z,28.67
2023-01-30T22:32:47.782Z,30.10
2023-01-30T22:35:16.540Z,30.05
2023-01-30T22:37:45.547Z,29.58
2023-01-30T22:40:14.355Z,29.00
2023-01-30T22:42:48.551Z,29.05
2023-01-30T22:45:17.681Z,28.48
2023-01-30T22:47:47.013Z,29.67
2023-01-30T22:50:15.818Z,29.92
2023-01-30T22:52:46.093Z,30.70
2023-01-30T22:55:14.794Z,29.85
2023-01-30T22:57:43.836Z,31.90
2023-01-30T23:00:12.759Z,30.65
2023-01-30T23:02:41.537Z,31.33
2023-01-30T23:05:10.427Z,29.58
2023-01-30T23:07:39.250Z,32.45
2023-01-30T23:10:08.524Z,31.27
2023-01-30T23:12:55.899Z,32.10
2023-01-30T23:15:24.863Z,31.25
2023-01-30T23:18:13.116Z,31.50
2023-01-30T23:20:41.539Z,29.42
2023-01-30T23:23:10.800Z,29.80
2023-01-30T23:25:42.813Z,30.33
2023-01-30T23:28:11.892Z,30.80
2023-01-30T23:30:40.738Z,29.27
2023-01-30T23:33:09.811Z,29.30
2023-01-30T23:35:38.886Z,29.45
2023-01-30T23:38:16.976Z,30.83
2023-01-30T23:40:47.269Z,29.95
2023-01-30T23:43:16.629Z,29.83
2023-01-30T23:45:45.407Z,30.88
2023-01-30T23:48:14.477Z,30.35
2023-01-30T23:50:43.148Z,30.70
2023-01-30T23:53:12.183Z,29.08
2023-01-30T23:55:40.800Z,28.33
2023-01-30T23:58:09.800Z,29.42
